sensor_id;sensor_type;location;lat;lon;timestamp;pressure;altitude;pressure_sealevel;temperature;humidity
15405;BME280;7801;48.124;11.590;2022-08-25T00:01:34;95589.91;;;19.75;83.08
15405;BME280;7801;48.124;11.590;2022-08-25T00:04:03;95590.78;;;19.79;82.97
15405;BME280;7801;48.124;11.590;2022-08-25T00:06:29;95589.56;;;19.76;83.05
15405;BME280;7801;48.124;11.590;2022-08-25T00:08:56;95585.25;;;19.72;83.28
15405;BME280;7801;48.124;11.590;2022-08-25T00:11:58;95591.22;;;19.65;83.80
15405;BME280;7801;48.124;11.590;2022-08-25T00:14:35;95588.97;;;19.67;83.69
15405;BME280;7801;48.124;11.590;2022-08-25T00:17:01;95581.56;;;19.64;83.63
15405;BME280;7801;48.124;11.590;2022-08-25T00:19:31;95580.31;;;19.74;83.41
15405;BME280;7801;48.124;11.590;2022-08-25T00:21:58;95574.91;;;19.74;83.34
15405;BME280;7801;48.124;11.590;2022-08-25T00:24:24;95580.19;;;19.70;83.50
15405;BME280;7801;48.124;11.590;2022-08-25T00:26:52;95573.25;;;19.69;83.64
15405;BME280;7801;48.124;11.590;2022-08-25T00:29:20;95574.91;;;19.74;83.55
15405;BME280;7801;48.124;11.590;2022-08-25T00:31:46;95581.09;;;19.74;83.40
15405;BME280;7801;48.124;11.590;2022-08-25T00:34:17;95573.75;;;19.59;84.16
15405;BME280;7801;48.124;11.590;2022-08-25T00:37:07;95578.81;;;19.48;84.75
15405;BME280;7801;48.124;11.590;2022-08-25T00:39:37;95568.75;;;19.45;85.15
15405;BME280;7801;48.124;11.590;2022-08-25T00:42:03;95574.56;;;19.47;84.99
15405;BME280;7801;48.124;11.590;2022-08-25T00:44:31;95572.78;;;19.51;84.86
15405;BME280;7801;48.124;11.590;2022-08-25T00:46:59;95569.03;;;19.56;84.79
15405;BME280;7801;48.124;11.590;2022-08-25T00:52:23;95569.16;;;19.32;85.93
15405;BME280;7801;48.124;11.590;2022-08-25T00:54:52;95565.84;;;19.38;85.77
15405;BME280;7801;48.124;11.590;2022-08-25T00:57:23;95569.03;;;19.28;86.38
15405;BME280;7801;48.124;11.590;2022-08-25T00:59:49;95556.28;;;19.25;86.52
15405;BME280;7801;48.124;11.590;2022-08-25T01:02:15;95561.31;;;19.27;86.70
15405;BME280;7801;48.124;11.590;2022-08-25T01:04:42;95554.38;;;19.26;86.84
15405;BME280;7801;48.124;11.590;2022-08-25T01:07:23;95558.63;;;19.27;86.93
15405;BME280;7801;48.124;11.590;2022-08-25T01:09:49;95555.94;;;19.27;87.23
15405;BME280;7801;48.124;11.590;2022-08-25T01:12:17;95549.44;;;19.28;86.90
15405;BME280;7801;48.124;11.590;2022-08-25T01:14:43;95547.53;;;19.28;87.10
15405;BME280;7801;48.124;11.590;2022-08-25T01:17:11;95550.56;;;19.27;87.25
15405;BME280;7801;48.124;11.590;2022-08-25T01:19:36;95553.25;;;19.27;87.32
15405;BME280;7801;48.124;11.590;2022-08-25T01:22:27;95549.66;;;19.22;87.66
15405;BME280;7801;48.124;11.590;2022-08-25T01:24:58;95555.63;;;19.16;88.11
15405;BME280;7801;48.124;11.590;2022-08-25T01:27:26;95556.41;;;19.16;88.14
15405;BME280;7801;48.124;11.590;2022-08-25T01:29:51;95551.53;;;19.06;88.87
15405;BME280;7801;48.124;11.590;2022-08-25T01:32:16;95551.19;;;19.08;88.76
15405;BME280;7801;48.124;11.590;2022-08-25T01:34:44;95551.53;;;19.06;88.80
15405;BME280;7801;48.124;11.590;2022-08-25T01:37:12;95556.00;;;19.02;88.88
15405;BME280;7801;48.124;11.590;2022-08-25T01:39:38;95553.25;;;19.14;88.43
15405;BME280;7801;48.124;11.590;2022-08-25T01:44:34;95558.25;;;19.00;88.84
15405;BME280;7801;48.124;11.590;2022-08-25T01:47:15;95558.03;;;18.93;89.37
15405;BME280;7801;48.124;11.590;2022-08-25T01:49:40;95550.84;;;19.09;88.61
15405;BME280;7801;48.124;11.590;2022-08-25T01:52:11;95559.16;;;19.04;88.58
15405;BME280;7801;48.124;11.590;2022-08-25T01:54:39;95552.19;;;19.03;88.81
15405;BME280;7801;48.124;11.590;2022-08-25T01:57:04;95553.25;;;18.86;89.26
15405;BME280;7801;48.124;11.590;2022-08-25T01:59:29;95550.19;;;19.00;88.90
15405;BME280;7801;48.124;11.590;2022-08-25T02:05:16;95541.44;;;19.03;88.68
15405;BME280;7801;48.124;11.590;2022-08-25T02:07:42;95545.34;;;19.06;88.36
15405;BME280;7801;48.124;11.590;2022-08-25T02:10:10;95541.44;;;19.03;88.37
15405;BME280;7801;48.124;11.590;2022-08-25T02:12:36;95542.34;;;18.95;88.74
15405;BME280;7801;48.124;11.590;2022-08-25T02:15:04;95547.78;;;18.83;89.47
15405;BME280;7801;48.124;11.590;2022-08-25T02:17:36;95547.34;;;18.81;89.59
15405;BME280;7801;48.124;11.590;2022-08-25T02:20:04;95552.03;;;18.72;90.27
15405;BME280;7801;48.124;11.590;2022-08-25T02:22:30;95542.84;;;18.73;90.35
15405;BME280;7801;48.124;11.590;2022-08-25T02:24:55;95540.53;;;18.59;91.19
15405;BME280;7801;48.124;11.590;2022-08-25T02:27:20;95549.59;;;18.54;91.62
15405;BME280;7801;48.124;11.590;2022-08-25T02:29:47;95545.69;;;18.64;91.27
15405;BME280;7801;48.124;11.590;2022-08-25T02:32:12;95545.56;;;18.61;91.47
15405;BME280;7801;48.124;11.590;2022-08-25T02:34:37;95548.34;;;18.52;91.63
15405;BME280;7801;48.124;11.590;2022-08-25T02:40:25;95542.84;;;18.73;91.00
15405;BME280;7801;48.124;11.590;2022-08-25T02:42:51;95545.69;;;18.64;91.19
15405;BME280;7801;48.124;11.590;2022-08-25T02:45:17;95542.00;;;18.69;90.97
15405;BME280;7801;48.124;11.590;2022-08-25T02:47:44;95539.41;;;18.60;91.15
15405;BME280;7801;48.124;11.590;2022-08-25T02:50:10;95538.62;;;18.60;91.16
15405;BME280;7801;48.124;11.590;2022-08-25T02:52:37;95541.00;;;18.61;90.86
15405;BME280;7801;48.124;11.590;2022-08-25T02:55:04;95539.63;;;18.55;91.13
15405;BME280;7801;48.124;11.590;2022-08-25T02:57:30;95529.19;;;18.53;91.42
15405;BME280;7801;48.124;11.590;2022-08-25T02:59:56;95532.94;;;18.61;91.00
15405;BME280;7801;48.124;11.590;2022-08-25T03:02:46;95524.50;;;18.50;91.29
15405;BME280;7801;48.124;11.590;2022-08-25T03:05:13;95531.25;;;18.32;92.15
15405;BME280;7801;48.124;11.590;2022-08-25T03:07:38;95524.56;;;18.26;92.60
15405;BME280;7801;48.124;11.590;2022-08-25T03:13:26;95526.87;;;18.40;92.11
15405;BME280;7801;48.124;11.590;2022-08-25T03:15:51;95523.75;;;18.38;91.94
15405;BME280;7801;48.124;11.590;2022-08-25T03:18:16;95527.19;;;18.50;91.35
15405;BME280;7801;48.124;11.590;2022-08-25T03:20:42;95526.09;;;18.39;91.61
15405;BME280;7801;48.124;11.590;2022-08-25T03:23:08;95528.56;;;18.32;92.15
15405;BME280;7801;48.124;11.590;2022-08-25T03:25:34;95531.03;;;18.37;92.12
15405;BME280;7801;48.124;11.590;2022-08-25T03:28:18;95519.81;;;18.47;91.26
15405;BME280;7801;48.124;11.590;2022-08-25T03:30:44;95529.22;;;18.41;91.45
15405;BME280;7801;48.124;11.590;2022-08-25T03:33:10;95533.94;;;18.44;91.39
15405;BME280;7801;48.124;11.590;2022-08-25T03:35:35;95521.19;;;18.41;91.49
15405;BME280;7801;48.124;11.590;2022-08-25T03:38:02;95524.75;;;18.33;91.72
15405;BME280;7801;48.124;11.590;2022-08-25T03:40:28;95519.19;;;18.26;92.38
15405;BME280;7801;48.124;11.590;2022-08-25T03:42:53;95524.41;;;18.35;91.99
15405;BME280;7801;48.124;11.590;2022-08-25T03:45:22;95517.16;;;18.35;91.78
15405;BME280;7801;48.124;11.590;2022-08-25T03:47:49;95514.91;;;18.37;91.36
15405;BME280;7801;48.124;11.590;2022-08-25T03:50:16;95513.47;;;18.28;92.04
15405;BME280;7801;48.124;11.590;2022-08-25T03:52:42;95516.69;;;18.33;91.64
15405;BME280;7801;48.124;11.590;2022-08-25T03:55:10;95511.87;;;18.39;91.36
15405;BME280;7801;48.124;11.590;2022-08-25T03:57:36;95511.78;;;18.35;91.47
15405;BME280;7801;48.124;11.590;2022-08-25T04:00:04;95515.00;;;18.41;91.24
15405;BME280;7801;48.124;11.590;2022-08-25T04:02:30;95508.84;;;18.40;91.22
15405;BME280;7801;48.124;11.590;2022-08-25T04:04:57;95509.19;;;18.39;90.94
15405;BME280;7801;48.124;11.590;2022-08-25T04:07:23;95510.66;;;18.36;91.16
15405;BME280;7801;48.124;11.590;2022-08-25T04:09:48;95516.03;;;18.36;91.17
15405;BME280;7801;48.124;11.590;2022-08-25T04:12:13;95513.03;;;18.26;91.66
15405;BME280;7801;48.124;11.590;2022-08-25T04:14:39;95527.00;;;18.31;91.61
15405;BME280;7801;48.124;11.590;2022-08-25T04:17:06;95522.75;;;18.18;92.16
15405;BME280;7801;48.124;11.590;2022-08-25T04:19:32;95523.62;;;18.10;92.54
15405;BME280;7801;48.124;11.590;2022-08-25T04:21:58;95523.78;;;18.26;91.95
15405;BME280;7801;48.124;11.590;2022-08-25T04:24:23;95525.66;;;18.25;91.88
15405;BME280;7801;48.124;11.590;2022-08-25T04:26:50;95526.13;;;18.27;91.79
15405;BME280;7801;48.124;11.590;2022-08-25T04:29:18;95525.34;;;18.27;91.87
15405;BME280;7801;48.124;11.590;2022-08-25T04:31:45;95530.56;;;18.11;92.30
15405;BME280;7801;48.124;11.590;2022-08-25T04:34:12;95520.28;;;18.13;92.64
15405;BME280;7801;48.124;11.590;2022-08-25T04:36:38;95526.78;;;18.24;92.02
15405;BME280;7801;48.124;11.590;2022-08-25T04:39:04;95513.56;;;18.19;92.14
15405;BME280;7801;48.124;11.590;2022-08-25T04:41:30;95514.91;;;18.13;92.38
15405;BME280;7801;48.124;11.590;2022-08-25T04:43:57;95525.09;;;18.19;92.27
15405;BME280;7801;48.124;11.590;2022-08-25T04:46:27;95513.34;;;18.12;92.55
15405;BME280;7801;48.124;11.590;2022-08-25T04:48:54;95518.41;;;18.26;92.05
15405;BME280;7801;48.124;11.590;2022-08-25T04:51:24;95521.84;;;18.14;92.40
15405;BME280;7801;48.124;11.590;2022-08-25T04:53:51;95520.16;;;18.09;92.58
15405;BME280;7801;48.124;11.590;2022-08-25T04:56:21;95528.25;;;18.22;92.05
15405;BME280;7801;48.124;11.590;2022-08-25T04:58:49;95520.41;;;18.16;92.33
15405;BME280;7801;48.124;11.590;2022-08-25T05:01:17;95524.75;;;18.09;92.47
15405;BME280;7801;48.124;11.590;2022-08-25T05:03:51;95514.25;;;18.16;92.28
15405;BME280;7801;48.124;11.590;2022-08-25T05:06:16;95517.84;;;18.08;92.58
15405;BME280;7801;48.124;11.590;2022-08-25T05:08:42;95510.31;;;18.13;92.28
15405;BME280;7801;48.124;11.590;2022-08-25T05:11:10;95518.50;;;18.05;92.84
15405;BME280;7801;48.124;11.590;2022-08-25T05:13:37;95511.78;;;18.11;92.52
15405;BME280;7801;48.124;11.590;2022-08-25T05:16:06;95519.41;;;18.21;92.13
15405;BME280;7801;48.124;11.590;2022-08-25T05:18:33;95512.69;;;18.15;92.53
15405;BME280;7801;48.124;11.590;2022-08-25T05:21:08;95512.69;;;18.15;92.24
15405;BME280;7801;48.124;11.590;2022-08-25T05:23:34;95512.22;;;18.13;92.29
15405;BME280;7801;48.124;11.590;2022-08-25T05:26:06;95524.09;;;18.12;92.27
15405;BME280;7801;48.124;11.590;2022-08-25T05:28:32;95520.16;;;18.09;92.41
15405;BME280;7801;48.124;11.590;2022-08-25T05:30:59;95514.91;;;18.13;92.01
15405;BME280;7801;48.124;11.590;2022-08-25T05:33:26;95520.41;;;18.04;92.39
15405;BME280;7801;48.124;11.590;2022-08-25T05:35:51;95521.28;;;18.08;92.27
15405;BME280;7801;48.124;11.590;2022-08-25T05:38:17;95512.34;;;18.16;92.01
15405;BME280;7801;48.124;11.590;2022-08-25T05:40:42;95510.56;;;18.20;91.96
15405;BME280;7801;48.124;11.590;2022-08-25T05:43:08;95503.50;;;18.28;91.66
15405;BME280;7801;48.124;11.590;2022-08-25T05:45:35;95508.00;;;18.24;91.84
15405;BME280;7801;48.124;11.590;2022-08-25T05:48:00;95506.31;;;18.19;91.86
15405;BME280;7801;48.124;11.590;2022-08-25T05:50:26;95502.94;;;18.23;92.14
15405;BME280;7801;48.124;11.590;2022-08-25T05:52:51;95507.09;;;18.20;92.26
15405;BME280;7801;48.124;11.590;2022-08-25T05:55:17;95505.75;;;18.14;92.49
15405;BME280;7801;48.124;11.590;2022-08-25T05:57:42;95511.56;;;18.28;92.03
15405;BME280;7801;48.124;11.590;2022-08-25T06:00:09;95513.13;;;18.29;92.08
15405;BME280;7801;48.124;11.590;2022-08-25T06:02:36;95510.41;;;18.29;91.86
15405;BME280;7801;48.124;11.590;2022-08-25T06:05:13;95513.78;;;18.38;91.05
15405;BME280;7801;48.124;11.590;2022-08-25T06:07:38;95505.84;;;18.42;91.14
15405;BME280;7801;48.124;11.590;2022-08-25T06:10:06;95500.91;;;18.44;91.19
15405;BME280;7801;48.124;11.590;2022-08-25T06:12:33;95506.41;;;18.47;90.93
15405;BME280;7801;48.124;11.590;2022-08-25T06:15:00;95500.00;;;18.40;91.09
15405;BME280;7801;48.124;11.590;2022-08-25T06:17:26;95492.50;;;18.45;91.00
15405;BME280;7801;48.124;11.590;2022-08-25T06:19:52;95497.63;;;18.50;90.86
15405;BME280;7801;48.124;11.590;2022-08-25T06:22:18;95493.16;;;18.54;90.52
15405;BME280;7801;48.124;11.590;2022-08-25T06:24:43;95491.13;;;18.51;90.70
15405;BME280;7801;48.124;11.590;2022-08-25T06:27:08;95492.25;;;18.50;90.57
15405;BME280;7801;48.124;11.590;2022-08-25T06:29:34;95485.34;;;18.62;90.32
15405;BME280;7801;48.124;11.590;2022-08-25T06:31:59;95491.84;;;18.61;90.15
15405;BME280;7801;48.124;11.590;2022-08-25T06:34:24;95488.41;;;18.76;89.71
15405;BME280;7801;48.124;11.590;2022-08-25T06:36:50;95485.78;;;18.64;90.23
15405;BME280;7801;48.124;11.590;2022-08-25T06:39:15;95487.31;;;18.77;90.06
15405;BME280;7801;48.124;11.590;2022-08-25T06:41:41;95486.84;;;18.75;89.92
15405;BME280;7801;48.124;11.590;2022-08-25T06:44:06;95493.00;;;18.75;89.18
15405;BME280;7801;48.124;11.590;2022-08-25T06:46:32;95491.44;;;18.74;89.50
15405;BME280;7801;48.124;11.590;2022-08-25T06:48:57;95484.47;;;18.85;89.37
15405;BME280;7801;48.124;11.590;2022-08-25T06:51:24;95501.78;;;19.00;89.02
15405;BME280;7801;48.124;11.590;2022-08-25T06:53:51;95498.66;;;18.98;88.78
15405;BME280;7801;48.124;11.590;2022-08-25T06:56:18;95504.56;;;19.04;88.61
15405;BME280;7801;48.124;11.590;2022-08-25T06:58:45;95508.72;;;19.01;88.59
15405;BME280;7801;48.124;11.590;2022-08-25T07:01:20;95503.91;;;19.07;87.81
15405;BME280;7801;48.124;11.590;2022-08-25T07:03:48;95498.72;;;18.86;88.75
15405;BME280;7801;48.124;11.590;2022-08-25T07:06:15;95496.50;;;19.04;88.23
15405;BME280;7801;48.124;11.590;2022-08-25T07:08:40;95501.91;;;19.19;87.82
15405;BME280;7801;48.124;11.590;2022-08-25T07:11:08;95498.56;;;19.38;86.36
15405;BME280;7801;48.124;11.590;2022-08-25T07:13:34;95503.28;;;19.41;86.86
15405;BME280;7801;48.124;11.590;2022-08-25T07:16:00;95501.25;;;19.50;85.79
15405;BME280;7801;48.124;11.590;2022-08-25T07:18:25;95496.13;;;19.61;85.62
15405;BME280;7801;48.124;11.590;2022-08-25T07:20:51;95503.94;;;19.66;84.70
15405;BME280;7801;48.124;11.590;2022-08-25T07:23:18;95500.56;;;19.69;84.85
15405;BME280;7801;48.124;11.590;2022-08-25T07:25:44;95499.78;;;19.84;83.67
15405;BME280;7801;48.124;11.590;2022-08-25T07:28:10;95489.87;;;19.88;84.17
15405;BME280;7801;48.124;11.590;2022-08-25T07:30:36;95496.97;;;19.97;84.21
15405;BME280;7801;48.124;11.590;2022-08-25T07:33:01;95496.37;;;20.03;83.33
15405;BME280;7801;48.124;11.590;2022-08-25T07:35:26;95498.81;;;20.08;82.81
15405;BME280;7801;48.124;11.590;2022-08-25T07:37:54;95502.28;;;20.09;83.01
15405;BME280;7801;48.124;11.590;2022-08-25T07:40:26;95497.25;;;20.07;83.32
15405;BME280;7801;48.124;11.590;2022-08-25T07:42:54;95494.28;;;20.12;82.83
15405;BME280;7801;48.124;11.590;2022-08-25T07:45:21;95497.56;;;20.21;82.23
15405;BME280;7801;48.124;11.590;2022-08-25T07:47:53;95493.84;;;20.26;81.95
15405;BME280;7801;48.124;11.590;2022-08-25T07:50:19;95493.84;;;20.26;82.40
15405;BME280;7801;48.124;11.590;2022-08-25T07:52:45;95495.47;;;20.31;82.77
15405;BME280;7801;48.124;11.590;2022-08-25T07:55:10;95499.50;;;20.37;82.48
15405;BME280;7801;48.124;11.590;2022-08-25T07:57:38;95497.56;;;20.37;82.27
15405;BME280;7801;48.124;11.590;2022-08-25T08:00:04;95494.78;;;20.34;82.83
15405;BME280;7801;48.124;11.590;2022-08-25T08:02:30;95497.37;;;20.46;82.37
15405;BME280;7801;48.124;11.590;2022-08-25T08:04:56;95504.41;;;20.50;82.35
15405;BME280;7801;48.124;11.590;2022-08-25T08:07:25;95512.25;;;20.55;82.42
15405;BME280;7801;48.124;11.590;2022-08-25T08:09:51;95504.59;;;20.57;82.35
15405;BME280;7801;48.124;11.590;2022-08-25T08:12:17;95509.19;;;20.57;82.25
15405;BME280;7801;48.124;11.590;2022-08-25T08:14:43;95511.94;;;20.61;81.92
15405;BME280;7801;48.124;11.590;2022-08-25T08:17:09;95504.44;;;20.70;81.34
15405;BME280;7801;48.124;11.590;2022-08-25T08:19:35;95499.06;;;20.70;81.40
15405;BME280;7801;48.124;11.590;2022-08-25T08:22:02;95505.66;;;20.72;81.28
15405;BME280;7801;48.124;11.590;2022-08-25T08:24:32;95506.72;;;20.87;81.04
15405;BME280;7801;48.124;11.590;2022-08-25T08:27:05;95504.53;;;20.92;80.71
15405;BME280;7801;48.124;11.590;2022-08-25T08:29:31;95497.59;;;20.91;81.29
15405;BME280;7801;48.124;11.590;2022-08-25T08:31:56;95494.31;;;21.02;80.33
15405;BME280;7801;48.124;11.590;2022-08-25T08:34:22;95503.13;;;20.99;80.50
15405;BME280;7801;48.124;11.590;2022-08-25T08:36:48;95494.16;;;21.14;79.71
15405;BME280;7801;48.124;11.590;2022-08-25T08:39:14;95500.00;;;21.16;79.84
15405;BME280;7801;48.124;11.590;2022-08-25T08:44:41;95500.72;;;21.32;79.31
15405;BME280;7801;48.124;11.590;2022-08-25T08:52:38;95483.13;;;21.42;78.98
15405;BME280;7801;48.124;11.590;2022-08-25T08:55:11;95483.41;;;21.56;78.92
15405;BME280;7801;48.124;11.590;2022-08-25T08:57:43;95478.00;;;21.56;78.71
15405;BME280;7801;48.124;11.590;2022-08-25T09:00:11;95483.50;;;21.63;78.08
15405;BME280;7801;48.124;11.590;2022-08-25T09:05:13;95468.69;;;21.76;76.94
15405;BME280;7801;48.124;11.590;2022-08-25T09:07:48;95470.34;;;21.84;76.35
15405;BME280;7801;48.124;11.590;2022-08-25T09:10:16;95464.59;;;21.86;76.31
15405;BME280;7801;48.124;11.590;2022-08-25T09:15:43;95457.22;;;22.06;76.19
15405;BME280;7801;48.124;11.590;2022-08-25T09:18:38;95465.75;;;22.08;75.87
15405;BME280;7801;48.124;11.590;2022-08-25T09:30:10;95462.69;;;22.09;76.03
15405;BME280;7801;48.124;11.590;2022-08-25T09:32:40;95474.44;;;22.20;75.83
15405;BME280;7801;48.124;11.590;2022-08-25T09:35:11;95461.84;;;22.32;75.08
15405;BME280;7801;48.124;11.590;2022-08-25T09:37:39;95452.22;;;22.34;75.03
15405;BME280;7801;48.124;11.590;2022-08-25T09:40:04;95455.50;;;22.47;75.37
15405;BME280;7801;48.124;11.590;2022-08-25T09:42:48;95449.88;;;22.59;75.50
15405;BME280;7801;48.124;11.590;2022-08-25T09:45:14;95463.34;;;22.55;76.08
15405;BME280;7801;48.124;11.590;2022-08-25T09:47:44;95453.31;;;22.56;75.83
15405;BME280;7801;48.124;11.590;2022-08-25T09:50:15;95453.81;;;22.65;75.61
15405;BME280;7801;48.124;11.590;2022-08-25T09:52:41;95452.28;;;22.68;75.38
15405;BME280;7801;48.124;11.590;2022-08-25T09:57:51;95451.50;;;22.67;75.08
15405;BME280;7801;48.124;11.590;2022-08-25T10:03:09;95447.16;;;22.89;73.84
15405;BME280;7801;48.124;11.590;2022-08-25T10:08:25;95436.22;;;23.12;71.73
15405;BME280;7801;48.124;11.590;2022-08-25T10:10:56;95431.75;;;23.26;71.09
15405;BME280;7801;48.124;11.590;2022-08-25T10:13:39;95430.22;;;23.33;70.50
15405;BME280;7801;48.124;11.590;2022-08-25T10:18:30;95431.50;;;23.42;70.84
15405;BME280;7801;48.124;11.590;2022-08-25T10:21:09;95434.81;;;23.62;70.24
15405;BME280;7801;48.124;11.590;2022-08-25T10:23:38;95427.44;;;23.62;69.68
15405;BME280;7801;48.124;11.590;2022-08-25T10:26:12;95421.66;;;23.64;69.84
15405;BME280;7801;48.124;11.590;2022-08-25T10:29:00;95421.66;;;23.64;70.00
15405;BME280;7801;48.124;11.590;2022-08-25T10:31:45;95414.72;;;23.70;69.77
15405;BME280;7801;48.124;11.590;2022-08-25T10:34:46;95416.38;;;23.82;68.81
15405;BME280;7801;48.124;11.590;2022-08-25T10:40:24;95415.22;;;23.83;68.37
15405;BME280;7801;48.124;11.590;2022-08-25T10:46:10;95402.12;;;23.92;68.67
15405;BME280;7801;48.124;11.590;2022-08-25T10:56:36;95398.91;;;24.30;65.90
15405;BME280;7801;48.124;11.590;2022-08-25T11:04:52;95391.16;;;24.29;66.46
15405;BME280;7801;48.124;11.590;2022-08-25T11:09:49;95386.56;;;24.40;65.29
15405;BME280;7801;48.124;11.590;2022-08-25T11:12:32;95391.97;;;24.40;63.15
15405;BME280;7801;48.124;11.590;2022-08-25T11:15:18;95390.78;;;24.30;63.75
15405;BME280;7801;48.124;11.590;2022-08-25T11:18:03;95396.28;;;24.48;63.25
15405;BME280;7801;48.124;11.590;2022-08-25T11:20:34;95381.09;;;24.37;63.50
15405;BME280;7801;48.124;11.590;2022-08-25T11:23:16;95397.75;;;24.35;64.11
15405;BME280;7801;48.124;11.590;2022-08-25T11:25:48;95387.72;;;24.43;64.14
15405;BME280;7801;48.124;11.590;2022-08-25T11:28:22;95380.00;;;24.48;63.65
15405;BME280;7801;48.124;11.590;2022-08-25T11:30:56;95382.72;;;24.45;64.35
15405;BME280;7801;48.124;11.590;2022-08-25T11:33:24;95369.91;;;24.45;65.10
15405;BME280;7801;48.124;11.590;2022-08-25T11:36:02;95382.75;;;24.59;64.06
15405;BME280;7801;48.124;11.590;2022-08-25T11:41:31;95383.22;;;24.79;62.68
15405;BME280;7801;48.124;11.590;2022-08-25T11:46:44;95359.91;;;24.63;64.56
15405;BME280;7801;48.124;11.590;2022-08-25T11:51:57;95354.56;;;24.85;64.83
15405;BME280;7801;48.124;11.590;2022-08-25T11:54:28;95358.03;;;24.85;64.42
15405;BME280;7801;48.124;11.590;2022-08-25T11:56:56;95349.53;;;24.94;64.17
15405;BME280;7801;48.124;11.590;2022-08-25T12:05:03;95353.84;;;25.06;63.09
15405;BME280;7801;48.124;11.590;2022-08-25T12:11:01;95355.03;;;25.19;63.04
15405;BME280;7801;48.124;11.590;2022-08-25T12:13:47;95354.66;;;25.13;63.58
15405;BME280;7801;48.124;11.590;2022-08-25T12:21:51;95357.78;;;25.33;60.62
15405;BME280;7801;48.124;11.590;2022-08-25T12:29:52;95355.81;;;25.37;60.82
15405;BME280;7801;48.124;11.590;2022-08-25T12:32:33;95362.03;;;25.45;61.31
15405;BME280;7801;48.124;11.590;2022-08-25T12:35:27;95365.53;;;25.45;62.04
15405;BME280;7801;48.124;11.590;2022-08-25T12:40:26;95365.16;;;25.47;60.69
15405;BME280;7801;48.124;11.590;2022-08-25T12:43:03;95363.19;;;25.40;61.48
15405;BME280;7801;48.124;11.590;2022-08-25T12:45:54;95355.44;;;25.46;60.56
15405;BME280;7801;48.124;11.590;2022-08-25T12:51:14;95347.69;;;25.55;58.90
15405;BME280;7801;48.124;11.590;2022-08-25T13:12:36;95336.41;;;25.46;61.40
15405;BME280;7801;48.124;11.590;2022-08-25T13:15:05;95327.50;;;25.49;61.16
15405;BME280;7801;48.124;11.590;2022-08-25T13:17:34;95329.03;;;25.43;61.54
15405;BME280;7801;48.124;11.590;2022-08-25T13:20:42;95325.94;;;25.55;61.35
15405;BME280;7801;48.124;11.590;2022-08-25T13:23:01;95323.97;;;25.59;60.87
15405;BME280;7801;48.124;11.590;2022-08-25T13:25:28;95313.50;;;25.61;61.03
15405;BME280;7801;48.124;11.590;2022-08-25T13:27:57;95323.59;;;25.57;61.13
15405;BME280;7801;48.124;11.590;2022-08-25T13:30:30;95318.19;;;25.67;60.26
15405;BME280;7801;48.124;11.590;2022-08-25T13:32:56;95324.38;;;25.61;60.66
15405;BME280;7801;48.124;11.590;2022-08-25T13:35:25;95319.75;;;25.76;59.29
15405;BME280;7801;48.124;11.590;2022-08-25T13:37:51;95308.47;;;25.66;59.43
15405;BME280;7801;48.124;11.590;2022-08-25T13:40:24;95311.19;;;25.70;59.27
15405;BME280;7801;48.124;11.590;2022-08-25T13:42:54;95314.69;;;25.74;58.74
15405;BME280;7801;48.124;11.590;2022-08-25T13:45:22;95315.09;;;25.76;58.63
15405;BME280;7801;48.124;11.590;2022-08-25T13:47:49;95311.19;;;25.70;59.58
15405;BME280;7801;48.124;11.590;2022-08-25T13:50:32;95304.59;;;25.75;60.21
15405;BME280;7801;48.124;11.590;2022-08-25T13:53:04;95306.94;;;25.76;60.59
15405;BME280;7801;48.124;11.590;2022-08-25T13:58:15;95297.19;;;25.82;60.32
15405;BME280;7801;48.124;11.590;2022-08-25T14:00:45;95297.56;;;25.88;59.52
15405;BME280;7801;48.124;11.590;2022-08-25T14:03:32;95308.44;;;25.91;59.31
15405;BME280;7801;48.124;11.590;2022-08-25T14:08:41;95299.50;;;25.98;58.85
15405;BME280;7801;48.124;11.590;2022-08-25T14:13:40;95300.28;;;25.84;59.46
15405;BME280;7801;48.124;11.590;2022-08-25T14:16:18;95301.06;;;25.81;59.55
15405;BME280;7801;48.124;11.590;2022-08-25T14:18:50;95294.84;;;25.95;58.82
15405;BME280;7801;48.124;11.590;2022-08-25T14:21:19;95295.59;;;25.99;59.02
15405;BME280;7801;48.124;11.590;2022-08-25T14:23:48;95291.28;;;26.12;58.57
15405;BME280;7801;48.124;11.590;2022-08-25T14:26:13;95293.19;;;26.19;58.23
15405;BME280;7801;48.124;11.590;2022-08-25T14:28:39;95294.34;;;26.28;58.18
15405;BME280;7801;48.124;11.590;2022-08-25T14:31:07;95299.00;;;26.21;58.66
15405;BME280;7801;48.124;11.590;2022-08-25T14:33:51;95293.16;;;26.26;57.83
15405;BME280;7801;48.124;11.590;2022-08-25T14:36:17;95288.53;;;26.33;57.43
15405;BME280;7801;48.124;11.590;2022-08-25T14:38:43;95289.28;;;26.34;57.59
15405;BME280;7801;48.124;11.590;2022-08-25T14:41:08;95285.41;;;26.35;57.58
15405;BME280;7801;48.124;11.590;2022-08-25T14:43:34;95285.75;;;26.41;57.48
15405;BME280;7801;48.124;11.590;2022-08-25T14:46:02;95286.56;;;26.38;57.58
15405;BME280;7801;48.124;11.590;2022-08-25T14:48:39;95282.66;;;26.28;58.17
15405;BME280;7801;48.124;11.590;2022-08-25T14:51:05;95282.25;;;26.40;57.95
15405;BME280;7801;48.124;11.590;2022-08-25T14:53:31;95281.13;;;26.34;57.34
15405;BME280;7801;48.124;11.590;2022-08-25T14:55:56;95286.59;;;26.20;57.71
15405;BME280;7801;48.124;11.590;2022-08-25T14:58:22;95283.13;;;26.09;57.44
15405;BME280;7801;48.124;11.590;2022-08-25T15:00:49;95278.53;;;25.91;58.11
15405;BME280;7801;48.124;11.590;2022-08-25T15:03:26;95275.41;;;25.96;58.38
15405;BME280;7801;48.124;11.590;2022-08-25T15:05:53;95270.72;;;26.00;58.56
15405;BME280;7801;48.124;11.590;2022-08-25T15:08:18;95270.00;;;25.93;59.05
15405;BME280;7801;48.124;11.590;2022-08-25T15:11:05;95262.94;;;26.02;59.20
15405;BME280;7801;48.124;11.590;2022-08-25T15:13:30;95272.72;;;25.82;60.32
15405;BME280;7801;48.124;11.590;2022-08-25T15:15:57;95259.13;;;25.89;59.99
15405;BME280;7801;48.124;11.590;2022-08-25T15:18:22;95261.06;;;25.85;60.10
15405;BME280;7801;48.124;11.590;2022-08-25T15:20:49;95264.56;;;25.93;59.45
15405;BME280;7801;48.124;11.590;2022-08-25T15:23:19;95271.94;;;25.89;59.45